createdAt,value
2022-12-17T00:02:04.525Z,96.60
2022-12-17T00:04:50.710Z,120.10
2022-12-17T00:07:39.225Z,105.37
2022-12-17T00:10:26.257Z,104.90
2022-12-17T00:13:12.458Z,113.07
2022-12-17T00:15:58.970Z,118.27
2022-12-17T00:18:45.663Z,120.60
2022-12-17T00:21:32.124Z,122.93
2022-12-17T00:24:19.718Z,101.07
2022-12-17T00:27:05.847Z,76.10
2022-12-17T00:29:51.850Z,90.93
2022-12-17T00:32:38.314Z,73.87
2022-12-17T00:35:25.340Z,56.23
2022-12-17T00:38:11.340Z,57.23
2022-12-17T00:40:59.082Z,58.13
2022-12-17T00:43:45.215Z,65.83
2022-12-17T00:46:31.485Z,67.93
2022-12-17T00:49:17.639Z,86.77
2022-12-17T00:52:03.960Z,74.60
2022-12-17T00:54:50.131Z,74.10
2022-12-17T00:57:37.777Z,79.63
2022-12-17T01:00:25.358Z,69.87
2022-12-17T01:03:11.530Z,99.20
2022-12-17T01:05:57.876Z,105.07
2022-12-17T01:08:45.903Z,119.10
2022-12-17T01:11:32.043Z,124.40
2022-12-17T01:14:19.467Z,120.07
2022-12-17T01:17:02.062Z,122.93
2022-12-17T01:19:48.468Z,113.43
2022-12-17T01:22:34.549Z,119.13
2022-12-17T01:25:20.547Z,128.80
2022-12-17T01:28:08.236Z,116.27
2022-12-17T01:30:57.688Z,121.07
2022-12-17T01:33:43.857Z,118.93
2022-12-17T01:36:29.219Z,118.87
2022-12-17T01:39:15.736Z,139.10
2022-12-17T01:42:01.859Z,122.97
2022-12-17T01:45:11.571Z,115.13
2022-12-17T01:48:03.757Z,111.17
2022-12-17T01:50:53.803Z,90.63
2022-12-17T01:53:43.557Z,102.37
2022-12-17T01:56:30.953Z,108.13
2022-12-17T01:59:17.707Z,105.47
2022-12-17T02:02:03.816Z,96.47
2022-12-17T02:04:51.605Z,70.20
2022-12-17T02:07:53.707Z,60.40
2022-12-17T02:10:44.411Z,80.73
2022-12-17T02:13:35.451Z,89.90
2022-12-17T02:16:28.331Z,100.30
2022-12-17T02:19:19.216Z,92.53
2022-12-17T02:22:12.612Z,72.30
2022-12-17T02:25:06.846Z,65.60
2022-12-17T02:27:55.283Z,64.77
2022-12-17T02:30:42.071Z,54.57
2022-12-17T02:33:29.558Z,46.93
2022-12-17T02:36:22.040Z,42.40
2022-12-17T02:39:08.035Z,42.40
2022-12-17T02:42:00.077Z,36.90
2022-12-17T02:44:50.874Z,37.73
2022-12-17T02:47:39.086Z,38.13
2022-12-17T02:50:27.846Z,43.77
2022-12-17T02:53:32.779Z,38.33
2022-12-17T02:56:19.280Z,47.27
2022-12-17T02:59:04.698Z,42.23
2022-12-17T03:01:53.910Z,81.43
2022-12-17T03:04:40.107Z,79.63
2022-12-17T03:07:26.335Z,64.73
2022-12-17T03:10:12.514Z,94.50
2022-12-17T03:13:01.541Z,56.17
2022-12-17T03:15:47.814Z,50.00
2022-12-17T03:18:35.598Z,77.33
2022-12-17T03:21:21.663Z,84.17
2022-12-17T03:24:07.917Z,92.70
2022-12-17T03:26:54.063Z,75.80
2022-12-17T03:29:58.841Z,66.67
2022-12-17T03:32:45.017Z,52.23
2022-12-17T03:35:41.184Z,72.10
2022-12-17T03:38:28.037Z,101.63
2022-12-17T03:41:14.356Z,95.03
2022-12-17T03:44:00.612Z,44.93
2022-12-17T03:46:46.597Z,84.13
2022-12-17T03:49:33.058Z,71.90
2022-12-17T03:52:20.568Z,68.67
2022-12-17T03:55:06.878Z,63.60
2022-12-17T03:57:53.284Z,45.80
2022-12-17T04:00:39.642Z,42.33
2022-12-17T04:03:25.981Z,51.83
2022-12-17T04:06:12.360Z,34.27
2022-12-17T04:08:59.908Z,30.30
2022-12-17T04:11:47.263Z,30.27
2022-12-17T04:14:38.821Z,30.00
2022-12-17T04:17:25.283Z,35.27
2022-12-17T04:20:11.584Z,31.67
2022-12-17T04:22:57.758Z,26.70
2022-12-17T04:25:45.747Z,29.83
2022-12-17T04:28:31.871Z,34.07
2022-12-17T04:31:18.270Z,30.70
2022-12-17T04:34:04.597Z,32.30
2022-12-17T04:36:50.733Z,33.70
2022-12-17T04:39:37.164Z,28.27
2022-12-17T04:42:25.079Z,26.13
2022-12-17T04:45:11.155Z,27.43
2022-12-17T04:47:57.501Z,28.17
2022-12-17T04:50:43.663Z,28.40
2022-12-17T04:53:29.825Z,27.53
2022-12-17T04:56:16.016Z,30.80
2022-12-17T04:59:06.560Z,33.93
2022-12-17T05:01:53.880Z,36.50
2022-12-17T05:04:40.048Z,41.50
2022-12-17T05:07:26.097Z,55.23
2022-12-17T05:10:12.417Z,55.90
2022-12-17T05:12:57.711Z,57.50
2022-12-17T05:15:51.349Z,58.60
2022-12-17T05:18:39.199Z,48.93
2022-12-17T05:21:29.208Z,63.97
2022-12-17T05:24:32.783Z,59.13
2022-12-17T05:27:19.142Z,51.67
2022-12-17T05:30:05.407Z,62.67
2022-12-17T05:32:52.853Z,87.70
2022-12-17T05:35:39.264Z,72.33
2022-12-17T05:38:27.172Z,42.23
2022-12-17T05:41:15.664Z,37.90
2022-12-17T05:47:08.461Z,42.30
2022-12-17T05:50:15.018Z,42.73
2022-12-17T05:53:08.547Z,43.60
2022-12-17T05:55:55.509Z,43.93
2022-12-17T05:58:44.963Z,36.10
2022-12-17T06:01:31.663Z,37.03
2022-12-17T06:04:17.997Z,33.67
2022-12-17T06:07:05.685Z,35.47
2022-12-17T06:09:52.206Z,31.67
2022-12-17T06:12:38.295Z,33.57
2022-12-17T06:15:25.578Z,45.17
2022-12-17T06:18:16.656Z,39.07
2022-12-17T06:21:05.051Z,33.57
2022-12-17T06:23:53.080Z,51.57
2022-12-17T06:26:39.822Z,78.23
2022-12-17T06:29:26.484Z,75.27
2022-12-17T06:32:13.396Z,82.97
2022-12-17T06:34:59.842Z,68.87
2022-12-17T06:37:46.071Z,60.33
2022-12-17T06:40:40.438Z,51.27
2022-12-17T06:43:27.679Z,40.70
2022-12-17T06:46:14.457Z,65.27
2022-12-17T06:49:02.590Z,59.83
2022-12-17T06:52:05.660Z,46.23
2022-12-17T06:54:59.780Z,42.87
2022-12-17T06:57:50.530Z,39.57
2022-12-17T07:00:37.403Z,56.07
2022-12-17T07:03:24.150Z,53.43
2022-12-17T07:06:10.448Z,74.50
2022-12-17T07:08:56.678Z,40.33
2022-12-17T07:11:48.935Z,39.03
2022-12-17T07:14:36.602Z,46.70
2022-12-17T07:17:23.016Z,46.67
2022-12-17T07:20:11.898Z,40.97
2022-12-17T07:22:54.702Z,38.93
2022-12-17T07:25:45.803Z,34.20
2022-12-17T07:28:32.415Z,40.37
2022-12-17T07:31:20.332Z,62.67
2022-12-17T07:34:06.334Z,52.07
2022-12-17T07:36:52.926Z,69.87
2022-12-17T07:39:39.044Z,61.20
2022-12-17T07:42:25.362Z,94.10
2022-12-17T07:45:11.587Z,60.00
2022-12-17T07:48:04.752Z,52.63
2022-12-17T07:51:09.262Z,58.87
2022-12-17T07:53:55.712Z,38.03
2022-12-17T07:56:41.990Z,51.10
2022-12-17T07:59:28.428Z,27.57
2022-12-17T08:02:15.010Z,48.07
2022-12-17T08:05:03.888Z,29.93
2022-12-17T08:07:50.297Z,47.07
2022-12-17T08:10:36.623Z,39.93
2022-12-17T08:13:27.946Z,31.03
2022-12-17T08:16:14.499Z,36.97
2022-12-17T08:19:00.913Z,32.20
2022-12-17T08:21:48.773Z,48.67
2022-12-17T08:24:35.137Z,43.00
2022-12-17T08:27:21.501Z,29.27
2022-12-17T08:30:27.420Z,32.63
2022-12-17T08:33:13.502Z,25.23
2022-12-17T08:35:59.527Z,29.77
2022-12-17T08:38:47.006Z,29.70
2022-12-17T08:41:33.397Z,23.33
2022-12-17T08:44:19.631Z,28.50
2022-12-17T08:47:05.644Z,23.27
2022-12-17T08:49:52.107Z,26.37
2022-12-17T08:52:38.430Z,23.93
2022-12-17T08:55:29.610Z,23.40
2022-12-17T08:58:17.270Z,25.23
2022-12-17T09:01:04.092Z,19.30
2022-12-17T09:03:50.393Z,18.20
2022-12-17T09:06:39.293Z,24.53
2022-12-17T09:09:26.607Z,18.33
2022-12-17T09:12:14.558Z,21.93
2022-12-17T09:15:00.975Z,24.67
2022-12-17T09:17:47.466Z,22.63
2022-12-17T09:20:35.529Z,34.77
2022-12-17T09:23:21.980Z,26.07
2022-12-17T09:26:12.219Z,33.83
2022-12-17T09:29:01.203Z,24.00
2022-12-17T09:31:48.848Z,21.93
2022-12-17T09:34:35.915Z,30.63
2022-12-17T09:37:23.523Z,32.67
2022-12-17T09:40:09.863Z,41.67
2022-12-17T09:43:05.099Z,102.63
2022-12-17T09:46:01.168Z,65.63
2022-12-17T09:48:54.829Z,58.13
2022-12-17T09:51:43.647Z,48.50
2022-12-17T09:54:38.795Z,60.60
2022-12-17T09:57:29.673Z,33.60
2022-12-17T10:00:16.212Z,45.67
2022-12-17T10:03:04.644Z,40.57
2022-12-17T10:05:51.688Z,39.53
2022-12-17T10:08:40.039Z,40.20
2022-12-17T10:11:39.407Z,30.03
2022-12-17T10:14:33.496Z,26.70
2022-12-17T10:17:21.249Z,43.17
2022-12-17T10:20:13.691Z,80.17
2022-12-17T10:23:04.638Z,41.30
2022-12-17T10:25:51.551Z,42.90
2022-12-17T10:28:39.284Z,37.03
2022-12-17T10:31:39.568Z,22.13
2022-12-17T10:34:27.734Z,34.00
2022-12-17T10:37:15.208Z,36.10
2022-12-17T10:40:01.571Z,50.33
2022-12-17T10:42:49.296Z,24.50
2022-12-17T10:45:43.916Z,24.90
2022-12-17T10:48:37.770Z,13.10
2022-12-17T10:51:25.585Z,36.30
2022-12-17T10:54:13.198Z,69.23
2022-12-17T10:56:59.226Z,28.03
2022-12-17T10:59:50.472Z,29.43
2022-12-17T11:02:46.991Z,27.93
2022-12-17T11:05:35.584Z,25.90
2022-12-17T11:08:22.957Z,25.40
2022-12-17T11:11:11.154Z,24.20
2022-12-17T11:14:03.874Z,25.60
2022-12-17T11:16:55.691Z,38.70
2022-12-17T11:19:55.054Z,31.70
2022-12-17T11:22:47.750Z,40.13
2022-12-17T11:25:47.623Z,27.47
2022-12-17T11:28:40.652Z,19.50
2022-12-17T11:31:48.721Z,22.17
2022-12-17T11:35:06.249Z,26.50
2022-12-17T11:37:57.663Z,21.67
2022-12-17T11:40:53.078Z,42.80
2022-12-17T11:43:48.058Z,51.70
2022-12-17T11:46:46.517Z,82.83
2022-12-17T11:49:42.347Z,55.90
2022-12-17T11:52:36.118Z,46.23
2022-12-17T11:55:34.416Z,45.03
2022-12-17T11:58:23.624Z,78.07
2022-12-17T12:01:20.537Z,29.00
2022-12-17T12:04:15.880Z,33.47
2022-12-17T12:07:13.580Z,61.10
2022-12-17T12:10:05.857Z,44.10
2022-12-17T12:13:04.168Z,31.00
2022-12-17T12:15:58.570Z,25.13
2022-12-17T12:18:54.819Z,27.77
2022-12-17T12:21:52.989Z,49.87
2022-12-17T12:25:12.162Z,45.47
2022-12-17T12:28:25.292Z,25.07
2022-12-17T12:31:20.069Z,50.00
2022-12-17T12:34:12.961Z,64.17
2022-12-17T12:37:01.337Z,52.77
2022-12-17T12:39:57.320Z,43.43
2022-12-17T12:43:33.487Z,31.50
2022-12-17T12:46:35.657Z,57.77
2022-12-17T12:49:39.435Z,40.77
2022-12-17T12:52:29.018Z,51.07
2022-12-17T12:55:18.649Z,48.07
2022-12-17T12:58:19.357Z,42.70
2022-12-17T13:01:18.990Z,34.90
2022-12-17T13:04:11.644Z,35.23
2022-12-17T13:06:46.859Z,48.67
2022-12-17T13:09:35.583Z,41.40
2022-12-17T13:12:23.680Z,43.70
2022-12-17T13:15:01.518Z,38.67
2022-12-17T13:17:36.206Z,34.37
2022-12-17T13:20:27.219Z,46.03
2022-12-17T13:23:18.272Z,49.13
2022-12-17T13:25:47.986Z,27.53
2022-12-17T13:28:31.109Z,21.77
2022-12-17T13:31:08.089Z,38.90
2022-12-17T13:33:47.525Z,57.67
2022-12-17T13:36:25.654Z,82.33
2022-12-17T13:39:04.396Z,88.87
2022-12-17T13:41:57.045Z,50.07
2022-12-17T13:44:29.735Z,37.60
2022-12-17T13:46:59.223Z,28.10
2022-12-17T13:49:30.091Z,32.93
2022-12-17T13:52:11.714Z,29.60
2022-12-17T13:54:42.284Z,23.40
2022-12-17T13:57:12.324Z,48.47
2022-12-17T13:59:41.803Z,98.20
2022-12-17T14:02:26.900Z,28.77
2022-12-17T14:04:59.097Z,19.43
2022-12-17T14:07:35.224Z,24.13
2022-12-17T14:10:07.294Z,41.88
2022-12-17T14:12:35.779Z,33.20
2022-12-17T14:15:09.663Z,37.23
2022-12-17T14:17:42.720Z,63.40
2022-12-17T14:20:15.680Z,70.00
2022-12-17T14:22:51.588Z,124.07
2022-12-17T14:25:24.295Z,166.00
2022-12-17T14:27:57.656Z,126.23
2022-12-17T14:30:46.273Z,49.93
2022-12-17T14:33:34.173Z,145.13
2022-12-17T14:36:06.649Z,54.87
2022-12-17T14:38:38.930Z,26.50
2022-12-17T14:41:27.859Z,27.70
2022-12-17T14:43:59.356Z,33.73
2022-12-17T14:46:29.434Z,34.00
2022-12-17T14:49:02.817Z,26.97
2022-12-17T14:51:36.417Z,37.73
2022-12-17T14:54:22.345Z,34.20
2022-12-17T14:56:54.815Z,33.37
2022-12-17T14:59:26.870Z,61.47
2022-12-17T15:02:02.936Z,113.60
2022-12-17T15:04:38.042Z,114.33
2022-12-17T15:07:14.682Z,116.40
2022-12-17T15:09:47.311Z,91.93
2022-12-17T15:12:18.901Z,75.60
2022-12-17T15:14:48.450Z,54.60
2022-12-17T15:17:18.029Z,54.13
2022-12-17T15:19:55.794Z,57.40
2022-12-17T15:22:43.828Z,70.40
2022-12-17T15:25:14.427Z,110.20
2022-12-17T15:27:44.926Z,67.30
2022-12-17T15:30:16.388Z,60.03
2022-12-17T15:32:46.706Z,115.87
2022-12-17T15:35:16.120Z,87.40
2022-12-17T15:37:44.987Z,67.83
2022-12-17T15:40:14.352Z,63.60
2022-12-17T15:43:06.087Z,57.70
2022-12-17T15:45:35.677Z,83.00
2022-12-17T15:48:04.529Z,88.20
2022-12-17T15:50:34.123Z,85.27
2022-12-17T15:53:03.409Z,97.97
2022-12-17T15:55:32.369Z,123.37
2022-12-17T15:58:02.826Z,105.63
2022-12-17T16:00:32.206Z,117.40
2022-12-17T16:03:01.118Z,117.23
2022-12-17T16:05:30.256Z,80.20
2022-12-17T16:08:02.710Z,119.97
2022-12-17T16:10:32.209Z,110.67
2022-12-17T16:13:02.658Z,139.43
2022-12-17T16:16:02.245Z,125.83
2022-12-17T16:18:32.976Z,111.30
2022-12-17T16:21:05.722Z,123.20
2022-12-17T16:23:35.040Z,124.70
2022-12-17T16:26:06.091Z,123.13
2022-12-17T16:28:37.706Z,149.53
2022-12-17T16:31:09.065Z,96.57
2022-12-17T16:33:40.257Z,87.07
2022-12-17T16:36:12.802Z,77.03
2022-12-17T16:38:45.938Z,77.93
2022-12-17T16:41:15.854Z,86.23
2022-12-17T16:43:46.508Z,71.13
2022-12-17T16:46:31.048Z,67.97
2022-12-17T16:49:04.033Z,60.80
2022-12-17T16:51:33.105Z,68.63
2022-12-17T16:54:08.057Z,72.20
2022-12-17T16:56:40.244Z,75.70
2022-12-17T16:59:12.347Z,79.13
2022-12-17T17:01:44.997Z,80.10
2022-12-17T17:04:16.361Z,64.43
2022-12-17T17:06:47.188Z,58.67
2022-12-17T17:09:17.717Z,53.80
2022-12-17T17:11:51.392Z,54.37
2022-12-17T17:14:22.582Z,88.30
2022-12-17T17:17:11.279Z,63.93
2022-12-17T17:19:40.112Z,71.97
2022-12-17T17:22:09.228Z,64.83
2022-12-17T17:24:38.049Z,75.87
2022-12-17T17:27:06.877Z,77.23
2022-12-17T17:29:37.340Z,112.10
2022-12-17T17:32:10.883Z,100.73
2022-12-17T17:34:40.658Z,106.53
2022-12-17T17:37:09.770Z,96.47
2022-12-17T17:39:38.812Z,186.03
2022-12-17T17:42:07.962Z,139.90
2022-12-17T17:44:38.694Z,118.07
2022-12-17T17:47:07.821Z,98.83
2022-12-17T17:49:36.779Z,108.53
2022-12-17T17:52:10.239Z,81.97
2022-12-17T17:54:41.145Z,80.83
2022-12-17T17:57:10.680Z,82.27
2022-12-17T17:59:41.263Z,117.00
2022-12-17T18:02:12.314Z,85.77
2022-12-17T18:04:41.533Z,103.17
2022-12-17T18:07:28.072Z,110.97
2022-12-17T18:09:59.923Z,105.40
2022-12-17T18:12:57.959Z,117.23
2022-12-17T18:15:28.357Z,103.60
2022-12-17T18:17:57.442Z,154.67
2022-12-17T18:20:26.354Z,131.07
2022-12-17T18:22:55.305Z,136.10
2022-12-17T18:25:24.519Z,144.27
2022-12-17T18:27:54.216Z,172.87
2022-12-17T18:30:24.628Z,136.83
2022-12-17T18:32:56.253Z,122.87
2022-12-17T18:35:27.665Z,101.37
2022-12-17T18:37:56.844Z,97.30
2022-12-17T18:40:30.135Z,98.77
2022-12-17T18:43:21.986Z,82.30
2022-12-17T18:45:50.998Z,119.33
2022-12-17T18:48:21.872Z,88.40
2022-12-17T18:50:50.806Z,73.03
2022-12-17T18:53:19.837Z,60.50
2022-12-17T18:55:48.765Z,57.33
2022-12-17T18:58:17.862Z,48.87
2022-12-17T19:00:47.234Z,47.83
2022-12-17T19:03:16.203Z,45.07
2022-12-17T19:05:54.062Z,51.70
2022-12-17T19:08:23.669Z,47.60
2022-12-17T19:11:13.552Z,51.87
2022-12-17T19:13:42.403Z,47.80
2022-12-17T19:16:13.811Z,50.23
2022-12-17T19:18:43.027Z,46.93
2022-12-17T19:21:16.281Z,50.57
2022-12-17T19:23:45.248Z,54.73
2022-12-17T19:26:15.540Z,74.30
2022-12-17T19:29:03.460Z,82.07
2022-12-17T19:31:33.742Z,79.17
2022-12-17T19:34:04.200Z,73.43
2022-12-17T19:36:36.130Z,47.10
2022-12-17T19:39:07.451Z,60.20
2022-12-17T19:41:36.862Z,60.23
2022-12-17T19:44:07.331Z,142.37
2022-12-17T19:46:37.946Z,111.37
2022-12-17T19:49:07.822Z,101.77
2022-12-17T19:51:39.072Z,118.30
2022-12-17T19:54:09.352Z,154.87
2022-12-17T19:56:38.444Z,149.73
2022-12-17T19:59:09.430Z,127.03
2022-12-17T20:01:41.507Z,125.43
2022-12-17T20:04:12.313Z,117.00
2022-12-17T20:06:43.309Z,90.97
2022-12-17T20:09:12.816Z,90.03
2022-12-17T20:11:42.553Z,127.40
2022-12-17T20:14:15.934Z,110.40
2022-12-17T20:16:46.604Z,157.27
2022-12-17T20:19:18.344Z,190.57
2022-12-17T20:21:49.219Z,180.43
2022-12-17T20:24:19.073Z,183.57
2022-12-17T20:26:50.225Z,183.03
2022-12-17T20:29:19.894Z,177.73
2022-12-17T20:31:49.971Z,169.00
2022-12-17T20:34:26.207Z,173.60
2022-12-17T20:37:14.855Z,174.33
2022-12-17T20:39:43.821Z,189.93
2022-12-17T20:42:13.386Z,191.97
2022-12-17T20:44:43.103Z,184.83
2022-12-17T20:47:12.098Z,208.80
2022-12-17T20:49:41.078Z,199.53
2022-12-17T20:52:10.167Z,183.03
2022-12-17T20:54:40.454Z,195.97
2022-12-17T20:57:09.456Z,184.30
2022-12-17T20:59:38.423Z,190.23
2022-12-17T21:02:07.561Z,166.43
2022-12-17T21:04:36.680Z,161.73
2022-12-17T21:07:05.594Z,152.93
2022-12-17T21:09:34.709Z,175.73
2022-12-17T21:12:05.145Z,179.50
2022-12-17T21:14:37.795Z,202.17
2022-12-17T21:17:07.122Z,198.97
2022-12-17T21:19:36.530Z,222.70
2022-12-17T21:22:06.066Z,221.17
2022-12-17T21:24:35.456Z,235.03
2022-12-17T21:27:11.148Z,249.27
2022-12-17T21:29:43.472Z,247.80
2022-12-17T21:32:12.304Z,221.83
2022-12-17T21:34:41.468Z,240.03
2022-12-17T21:37:11.443Z,259.33
2022-12-17T21:39:40.431Z,239.90
2022-12-17T21:42:28.399Z,239.03
2022-12-17T21:45:16.115Z,259.30
2022-12-17T21:47:45.415Z,253.63
2022-12-17T21:50:14.462Z,253.20
2022-12-17T21:52:43.294Z,239.07
2022-12-17T21:55:12.136Z,255.37
2022-12-17T21:57:42.703Z,258.23
2022-12-17T22:00:12.888Z,270.53
2022-12-17T22:02:42.031Z,268.87
2022-12-17T22:05:16.239Z,272.93
2022-12-17T22:07:48.260Z,299.77
2022-12-17T22:10:38.450Z,294.67
2022-12-17T22:13:27.668Z,303.43
2022-12-17T22:15:57.297Z,288.27
2022-12-17T22:18:27.762Z,309.43
2022-12-17T22:21:00.469Z,306.63
2022-12-17T22:23:29.994Z,311.10
2022-12-17T22:26:19.604Z,300.83
2022-12-17T22:28:50.372Z,314.10
2022-12-17T22:31:38.459Z,299.00
2022-12-17T22:34:55.185Z,320.30
2022-12-17T22:38:40.294Z,305.20
2022-12-17T22:44:31.021Z,268.00
2022-12-17T22:44:41.941Z,264.23
2022-12-17T22:45:44.685Z,271.57
2022-12-17T22:48:15.133Z,190.80
2022-12-17T22:50:54.779Z,183.30
2022-12-17T22:53:53.115Z,178.73
2022-12-17T22:56:36.372Z,148.13
2022-12-17T22:59:17.261Z,91.63
2022-12-17T23:01:48.027Z,106.33
2022-12-17T23:04:17.987Z,88.37
2022-12-17T23:06:47.672Z,68.80
2022-12-17T23:09:19.435Z,67.73
2022-12-17T23:11:49.607Z,79.97
2022-12-17T23:14:19.242Z,74.40
2022-12-17T23:16:49.741Z,60.53
2022-12-17T23:19:18.635Z,45.20
2022-12-17T23:21:47.568Z,40.40
2022-12-17T23:24:16.461Z,38.33
2022-12-17T23:26:45.359Z,41.40
2022-12-17T23:29:19.415Z,61.90
2022-12-17T23:31:50.345Z,85.00
2022-12-17T23:34:19.170Z,86.40
2022-12-17T23:36:48.185Z,96.10
2022-12-17T23:39:17.191Z,80.90
2022-12-17T23:41:46.228Z,56.00
2022-12-17T23:44:15.052Z,55.03
2022-12-17T23:46:44.085Z,45.67
2022-12-17T23:49:14.512Z,38.60
2022-12-17T23:51:43.529Z,38.70
2022-12-17T23:54:12.528Z,33.83
2022-12-17T23:56:41.614Z,27.37
2022-12-17T23:59:11.831Z,29.43
